Private Wetterstation Grnau im Almtal
www.gruenau.tv

Wetterdaten: aktuell Freitag, 20.04.2018 23:40
Datum Zeit Temperatur Temp. min Temp. max Luftfeuchte Luftdruck Regen Wind Richtung Richtung Sonne ET UV Solar Taupunkt Windchill Windben
20.04.2018 23:40 13,7 C 13,6 C 13,7 C 68 % 1020,7 hPa 0,0 l/m 9,4 km/h (2 Bft) O-SO 105 0 min 0,025 mm 0,0 UV-I 0 W/m 7,9 C 12,0 C 17,7 km/h (3 Bft)
20.04.2018 22:40 14,7 C 14,7 C 14,7 C 64 % 1021,0 hPa 0,0 l/m 5,7 km/h (1 Bft) SO 137 0 min 0,025 mm 0,0 UV-I 0 W/m 8,0 C 14,7 C 9,7 km/h (2 Bft)
20.04.2018 21:40 15,7 C 15,6 C 15,7 C 60 % 1021,3 hPa 0,0 l/m 2,5 km/h (1 Bft) SO 137 0 min 0,025 mm 0,0 UV-I 0 W/m 8,0 C 15,7 C 6,4 km/h (2 Bft)
20.04.2018 20:40 17,7 C 17,7 C 17,9 C 55 % 1021,1 hPa 0,0 l/m 0,2 km/h (0 Bft) N 3 5 min 0,051 mm 0,0 UV-I 0 W/m 8,5 C 17,7 C 1,6 km/h (1 Bft)
20.04.2018 19:40 20,7 C 20,7 C 21,2 C 45 % 1020,9 hPa 0,0 l/m 0,0 km/h (0 Bft) N 1 0 min 0,127 mm 0,0 UV-I 16 W/m 8,3 C 20,7 C 0,0 km/h (0 Bft)
20.04.2018 18:40 22,3 C 22,3 C 22,4 C 38 % 1020,7 hPa 0,0 l/m 5,8 km/h (2 Bft) N 359 30 min 0,305 mm 0,0 UV-I 42 W/m 7,3 C 22,3 C 11,3 km/h (2 Bft)
20.04.2018 17:40 24,5 C 24,5 C 24,5 C 36 % 1020,9 hPa 0,0 l/m 7,7 km/h (2 Bft) W-SW 247 60 min 0,381 mm 1,1 UV-I 316 W/m 8,4 C 24,2 C 12,9 km/h (3 Bft)
20.04.2018 16:40 26,2 C 26,0 C 26,2 C 41 % 1021,1 hPa 0,0 l/m 6,1 km/h (2 Bft) NW 309 60 min 0,483 mm 2,3 UV-I 492 W/m 11,9 C 26,2 C 12,9 km/h (3 Bft)
20.04.2018 15:40 26,6 C 26,4 C 26,6 C 40 % 1021,8 hPa 0,0 l/m 7,0 km/h (2 Bft) N-NW 347 60 min 0,559 mm 3,8 UV-I 638 W/m 11,9 C 26,5 C 14,5 km/h (3 Bft)
20.04.2018 14:40 25,8 C 25,6 C 25,8 C 44 % 1022,5 hPa 0,0 l/m 9,3 km/h (2 Bft) NW 322 60 min 0,610 mm 5,3 UV-I 754 W/m 12,6 C 25,2 C 17,7 km/h (3 Bft)
20.04.2018 13:40 24,2 C 24,0 C 24,2 C 52 % 1023,1 hPa 0,0 l/m 15,2 km/h (3 Bft) N-NW 335 60 min 0,584 mm 6,2 UV-I 821 W/m 13,7 C 22,3 C 22,5 km/h (4 Bft)
20.04.2018 12:40 22,8 C 22,7 C 22,8 C 56 % 1023,7 hPa 0,0 l/m 11,8 km/h (2 Bft) N-NW 327 60 min 0,508 mm 6,3 UV-I 840 W/m 13,6 C 21,3 C 20,9 km/h (4 Bft)
20.04.2018 11:40 21,1 C 20,9 C 21,1 C 58 % 1024,4 hPa 0,0 l/m 13,1 km/h (3 Bft) N-NW 331 60 min 0,406 mm 5,5 UV-I 789 W/m 12,5 C 19,0 C 19,3 km/h (3 Bft)
20.04.2018 10:40 18,8 C 18,7 C 18,8 C 59 % 1024,9 hPa 0,0 l/m 7,7 km/h (2 Bft) N-NW 332 60 min 0,279 mm 4,1 UV-I 707 W/m 10,6 C 18,2 C 12,9 km/h (3 Bft)
20.04.2018 09:40 15,3 C 15,0 C 15,3 C 68 % 1025,1 hPa 0,0 l/m 0,0 km/h (0 Bft) W 273 60 min 0,178 mm 2,5 UV-I 573 W/m 9,4 C 15,3 C 0,0 km/h (0 Bft)
20.04.2018 08:40 11,7 C 11,3 C 11,7 C 80 % 1025,5 hPa 0,0 l/m 1,2 km/h (1 Bft) S-SO 147 60 min 0,076 mm 1,1 UV-I 399 W/m 8,4 C 11,7 C 3,2 km/h (1 Bft)
20.04.2018 07:40 8,9 C 8,7 C 8,9 C 86 % 1025,5 hPa 0,0 l/m 2,2 km/h (1 Bft) O-SO 111 30 min 0,025 mm 0,0 UV-I 209 W/m 6,7 C 8,9 C 4,8 km/h (1 Bft)
20.04.2018 06:40 8,4 C 8,3 C 8,4 C 85 % 1025,4 hPa 0,0 l/m 7,0 km/h (2 Bft) O 97 0 min 0,025 mm 0,0 UV-I 19 W/m 6,0 C 7,9 C 19,3 km/h (3 Bft)
20.04.2018 05:40 8,2 C 8,2 C 8,2 C 85 % 1025,5 hPa 0,0 l/m 10,9 km/h (2 Bft) O-SO 115 0 min 0,025 mm 0,0 UV-I 0 W/m 5,8 C 5,1 C 19,3 km/h (3 Bft)
20.04.2018 04:40 8,8 C 8,8 C 8,8 C 84 % 1025,9 hPa 0,0 l/m 4,9 km/h (1 Bft) SO 137 0 min 0,025 mm 0,0 UV-I 0 W/m 6,2 C 8,8 C 12,9 km/h (3 Bft)
20.04.2018 03:40 9,3 C 9,3 C 9,3 C 83 % 1025,9 hPa 0,0 l/m 8,0 km/h (2 Bft) SO 130 0 min 0,025 mm 0,0 UV-I 0 W/m 6,6 C 8,1 C 16,1 km/h (3 Bft)
20.04.2018 02:40 10,0 C 10,0 C 10,1 C 81 % 1026,2 hPa 0,0 l/m 9,3 km/h (2 Bft) S-SO 158 0 min 0,025 mm 0,0 UV-I 0 W/m 6,9 C 8,0 C 16,1 km/h (3 Bft)
20.04.2018 01:40 10,7 C 10,7 C 10,7 C 80 % 1026,8 hPa 0,0 l/m 6,8 km/h (2 Bft) O-SO 112 0 min 0,025 mm 0,0 UV-I 0 W/m 7,4 C 10,4 C 16,1 km/h (3 Bft)
20.04.2018 00:40 10,9 C 10,9 C 11,0 C 79 % 1027,1 hPa 0,0 l/m 4,8 km/h (1 Bft) S-SO 147 0 min 0,025 mm 0,0 UV-I 0 W/m 7,4 C 10,9 C 9,7 km/h (2 Bft)
20.04.2018 00:00 11,7 C 11,7 C 12,2 C 77 % 1027,1 hPa 0,0 l/m 4,8 km/h (1 Bft) SO 135 0 min 0,025 mm 0,0 UV-I 0 W/m 7,8 C 11,7 C 12,9 km/h (3 Bft)
_ Min-Zeit 06:10 06:10 06:10 18:15 18:20 - 07:55 - - - - - - 06:00 05:30 07:55
Minimum _ 8,0 C 8,0 C 8,1 C 35 % 1020,6 hPa - 0,0 km/h (0 Bft) - - - - - - 5,7 C 4,4 C 0,0 km/h (0 Bft)
_ Max-Zeit 16:55 16:55 16:55 05:50 00:00 00:00 13:20 - - 12:16 14:00 12:45 12:50 14:00 16:55 13:15
Maximum _ 27,3 C 26,9 C 27,3 C 86 % 1027,1 hPa 0,0 l/m 17,5 km/h
W-NW (3 Bft)
- - 6 min 0,610 mm 6,4 UV-I 842 W/m 15,1 C 27,2 C 25,7 km/h
W-NW (4 Bft)
Durchschnitt _ 16,5 C 16,4 C 16,7 C 64 % 1023,7 hPa #0,0 l/m 6,7 km/h (2 Bft) SO - #11:05 h #4,822 mm 3,7 UV-I 477 W/m 8,9 C 15,9 C 13,2 km/h (3 Bft)
Rauscher Max - www.gruenau.tv